sensor_id;sensor_type;location;lat;lon;timestamp;P1;durP1;ratioP1;P2;durP2;ratioP2
19257;SDS011;9763;48.780;9.212;2022-07-29T00:00:15;1.90;;;1.80;;
19257;SDS011;9763;48.780;9.212;2022-07-29T00:03:39;1.87;;;1.67;;
19257;SDS011;9763;48.780;9.212;2022-07-29T00:07:04;2.07;;;1.87;;
19257;SDS011;9763;48.780;9.212;2022-07-29T00:10:27;1.93;;;1.73;;
19257;SDS011;9763;48.780;9.212;2022-07-29T00:13:51;2.83;;;2.00;;
19257;SDS011;9763;48.780;9.212;2022-07-29T00:17:15;1.70;;;1.50;;
19257;SDS011;9763;48.780;9.212;2022-07-29T00:20:39;1.93;;;1.50;;
19257;SDS011;9763;48.780;9.212;2022-07-29T00:24:04;1.77;;;1.40;;
19257;SDS011;9763;48.780;9.212;2022-07-29T00:27:28;1.80;;;1.67;;
19257;SDS011;9763;48.780;9.212;2022-07-29T00:30:52;3.20;;;1.73;;
19257;SDS011;9763;48.780;9.212;2022-07-29T00:34:16;1.60;;;1.50;;
19257;SDS011;9763;48.780;9.212;2022-07-29T00:37:57;2.00;;;1.60;;
19257;SDS011;9763;48.780;9.212;2022-07-29T00:41:24;1.70;;;1.60;;
19257;SDS011;9763;48.780;9.212;2022-07-29T00:44:47;2.00;;;1.50;;
19257;SDS011;9763;48.780;9.212;2022-07-29T00:48:11;1.90;;;1.70;;
19257;SDS011;9763;48.780;9.212;2022-07-29T00:51:34;2.03;;;1.80;;
19257;SDS011;9763;48.780;9.212;2022-07-29T00:54:59;2.27;;;1.57;;
19257;SDS011;9763;48.780;9.212;2022-07-29T00:58:30;2.00;;;1.73;;
19257;SDS011;9763;48.780;9.212;2022-07-29T01:01:54;4.90;;;1.70;;
19257;SDS011;9763;48.780;9.212;2022-07-29T01:05:19;2.17;;;1.60;;
19257;SDS011;9763;48.780;9.212;2022-07-29T01:09:05;2.70;;;1.70;;
19257;SDS011;9763;48.780;9.212;2022-07-29T01:12:32;1.80;;;1.70;;
19257;SDS011;9763;48.780;9.212;2022-07-29T01:16:02;4.13;;;1.70;;
19257;SDS011;9763;48.780;9.212;2022-07-29T01:19:41;3.30;;;1.70;;
19257;SDS011;9763;48.780;9.212;2022-07-29T01:23:19;2.27;;;1.70;;
19257;SDS011;9763;48.780;9.212;2022-07-29T01:27:26;2.00;;;1.60;;
19257;SDS011;9763;48.780;9.212;2022-07-29T01:31:11;1.90;;;1.37;;
19257;SDS011;9763;48.780;9.212;2022-07-29T01:34:47;2.10;;;1.60;;
19257;SDS011;9763;48.780;9.212;2022-07-29T01:38:17;1.90;;;1.63;;
19257;SDS011;9763;48.780;9.212;2022-07-29T01:41:48;1.60;;;1.50;;
19257;SDS011;9763;48.780;9.212;2022-07-29T01:45:20;1.57;;;1.43;;
19257;SDS011;9763;48.780;9.212;2022-07-29T01:48:52;2.00;;;1.50;;
19257;SDS011;9763;48.780;9.212;2022-07-29T01:52:23;2.17;;;1.47;;
19257;SDS011;9763;48.780;9.212;2022-07-29T01:55:56;2.47;;;1.30;;
19257;SDS011;9763;48.780;9.212;2022-07-29T01:59:24;1.50;;;1.40;;
19257;SDS011;9763;48.780;9.212;2022-07-29T02:02:49;3.20;;;1.73;;
19257;SDS011;9763;48.780;9.212;2022-07-29T02:06:18;2.00;;;1.40;;
19257;SDS011;9763;48.780;9.212;2022-07-29T02:09:45;2.47;;;1.37;;
19257;SDS011;9763;48.780;9.212;2022-07-29T02:13:12;1.60;;;1.40;;
19257;SDS011;9763;48.780;9.212;2022-07-29T02:16:39;1.90;;;1.40;;
19257;SDS011;9763;48.780;9.212;2022-07-29T02:20:05;3.20;;;1.27;;
19257;SDS011;9763;48.780;9.212;2022-07-29T02:23:33;1.90;;;1.53;;
19257;SDS011;9763;48.780;9.212;2022-07-29T02:27:12;1.70;;;1.30;;
19257;SDS011;9763;48.780;9.212;2022-07-29T02:30:39;1.83;;;1.60;;
19257;SDS011;9763;48.780;9.212;2022-07-29T02:34:06;2.37;;;1.50;;
19257;SDS011;9763;48.780;9.212;2022-07-29T02:37:33;1.50;;;1.20;;
19257;SDS011;9763;48.780;9.212;2022-07-29T02:41:01;1.50;;;1.30;;
19257;SDS011;9763;48.780;9.212;2022-07-29T02:44:33;1.60;;;1.30;;
19257;SDS011;9763;48.780;9.212;2022-07-29T02:47:57;1.50;;;1.40;;
19257;SDS011;9763;48.780;9.212;2022-07-29T02:51:31;1.40;;;1.10;;
19257;SDS011;9763;48.780;9.212;2022-07-29T02:55:07;2.53;;;1.70;;
19257;SDS011;9763;48.780;9.212;2022-07-29T02:58:40;1.67;;;1.50;;
19257;SDS011;9763;48.780;9.212;2022-07-29T03:02:09;1.70;;;1.60;;
19257;SDS011;9763;48.780;9.212;2022-07-29T03:05:36;2.67;;;1.70;;
19257;SDS011;9763;48.780;9.212;2022-07-29T03:09:03;1.90;;;1.70;;
19257;SDS011;9763;48.780;9.212;2022-07-29T03:12:34;2.40;;;1.70;;
19257;SDS011;9763;48.780;9.212;2022-07-29T03:16:00;2.00;;;1.80;;
19257;SDS011;9763;48.780;9.212;2022-07-29T03:19:25;2.23;;;2.03;;
19257;SDS011;9763;48.780;9.212;2022-07-29T03:22:50;2.90;;;1.80;;
19257;SDS011;9763;48.780;9.212;2022-07-29T03:26:13;2.53;;;1.70;;
19257;SDS011;9763;48.780;9.212;2022-07-29T03:29:37;2.30;;;2.10;;
19257;SDS011;9763;48.780;9.212;2022-07-29T03:33:05;1.80;;;1.70;;
19257;SDS011;9763;48.780;9.212;2022-07-29T03:36:34;2.40;;;2.20;;
19257;SDS011;9763;48.780;9.212;2022-07-29T03:39:58;2.33;;;1.70;;
19257;SDS011;9763;48.780;9.212;2022-07-29T03:43:24;2.10;;;1.90;;
19257;SDS011;9763;48.780;9.212;2022-07-29T03:46:53;3.10;;;2.00;;
19257;SDS011;9763;48.780;9.212;2022-07-29T03:50:22;2.80;;;2.10;;
19257;SDS011;9763;48.780;9.212;2022-07-29T03:53:46;2.10;;;1.90;;
19257;SDS011;9763;48.780;9.212;2022-07-29T03:57:11;2.10;;;1.90;;
19257;SDS011;9763;48.780;9.212;2022-07-29T04:00:37;2.33;;;1.70;;
19257;SDS011;9763;48.780;9.212;2022-07-29T04:04:02;1.53;;;1.30;;
19257;SDS011;9763;48.780;9.212;2022-07-29T04:07:27;1.60;;;1.50;;
19257;SDS011;9763;48.780;9.212;2022-07-29T04:10:51;2.33;;;1.50;;
19257;SDS011;9763;48.780;9.212;2022-07-29T04:14:14;1.57;;;1.23;;
19257;SDS011;9763;48.780;9.212;2022-07-29T04:17:39;1.60;;;1.50;;
19257;SDS011;9763;48.780;9.212;2022-07-29T04:21:02;2.40;;;1.30;;
19257;SDS011;9763;48.780;9.212;2022-07-29T04:24:27;1.60;;;1.30;;
19257;SDS011;9763;48.780;9.212;2022-07-29T04:27:51;1.40;;;1.20;;
19257;SDS011;9763;48.780;9.212;2022-07-29T04:31:24;1.50;;;1.30;;
19257;SDS011;9763;48.780;9.212;2022-07-29T04:34:47;1.37;;;1.17;;
19257;SDS011;9763;48.780;9.212;2022-07-29T04:38:11;1.70;;;1.47;;
19257;SDS011;9763;48.780;9.212;2022-07-29T04:41:39;1.40;;;1.20;;
19257;SDS011;9763;48.780;9.212;2022-07-29T04:45:03;1.50;;;1.30;;
19257;SDS011;9763;48.780;9.212;2022-07-29T04:48:28;4.07;;;1.30;;
19257;SDS011;9763;48.780;9.212;2022-07-29T04:51:52;1.80;;;1.37;;
19257;SDS011;9763;48.780;9.212;2022-07-29T04:55:16;1.90;;;1.43;;
19257;SDS011;9763;48.780;9.212;2022-07-29T04:58:41;2.00;;;1.53;;
19257;SDS011;9763;48.780;9.212;2022-07-29T05:02:04;2.50;;;1.60;;
19257;SDS011;9763;48.780;9.212;2022-07-29T05:05:28;1.90;;;1.60;;
19257;SDS011;9763;48.780;9.212;2022-07-29T05:08:52;1.77;;;1.27;;
19257;SDS011;9763;48.780;9.212;2022-07-29T05:12:16;1.67;;;1.43;;
19257;SDS011;9763;48.780;9.212;2022-07-29T05:15:41;1.50;;;1.27;;
19257;SDS011;9763;48.780;9.212;2022-07-29T05:19:04;1.70;;;1.30;;
19257;SDS011;9763;48.780;9.212;2022-07-29T05:22:34;1.63;;;1.40;;
19257;SDS011;9763;48.780;9.212;2022-07-29T05:25:58;2.27;;;1.53;;
19257;SDS011;9763;48.780;9.212;2022-07-29T05:29:21;1.40;;;1.20;;
19257;SDS011;9763;48.780;9.212;2022-07-29T05:33:05;2.00;;;1.60;;
19257;SDS011;9763;48.780;9.212;2022-07-29T05:36:49;1.53;;;1.40;;
19257;SDS011;9763;48.780;9.212;2022-07-29T05:40:12;1.73;;;1.30;;
19257;SDS011;9763;48.780;9.212;2022-07-29T05:43:36;1.47;;;1.20;;
19257;SDS011;9763;48.780;9.212;2022-07-29T05:46:59;1.50;;;1.07;;
19257;SDS011;9763;48.780;9.212;2022-07-29T05:50:24;1.40;;;1.00;;
19257;SDS011;9763;48.780;9.212;2022-07-29T05:53:48;1.50;;;1.10;;
19257;SDS011;9763;48.780;9.212;2022-07-29T05:57:14;1.50;;;1.20;;
19257;SDS011;9763;48.780;9.212;2022-07-29T06:00:39;1.40;;;1.00;;
19257;SDS011;9763;48.780;9.212;2022-07-29T06:04:03;1.50;;;0.90;;
19257;SDS011;9763;48.780;9.212;2022-07-29T06:07:28;1.50;;;1.00;;
19257;SDS011;9763;48.780;9.212;2022-07-29T06:10:54;1.93;;;1.23;;
19257;SDS011;9763;48.780;9.212;2022-07-29T06:14:18;1.50;;;1.20;;
19257;SDS011;9763;48.780;9.212;2022-07-29T06:17:41;1.87;;;0.90;;
19257;SDS011;9763;48.780;9.212;2022-07-29T06:21:22;1.50;;;1.20;;
19257;SDS011;9763;48.780;9.212;2022-07-29T06:24:47;1.50;;;0.97;;
19257;SDS011;9763;48.780;9.212;2022-07-29T06:28:11;1.40;;;1.10;;
19257;SDS011;9763;48.780;9.212;2022-07-29T06:31:34;2.23;;;1.10;;
19257;SDS011;9763;48.780;9.212;2022-07-29T06:34:58;2.23;;;1.07;;
19257;SDS011;9763;48.780;9.212;2022-07-29T06:38:42;1.70;;;1.17;;
19257;SDS011;9763;48.780;9.212;2022-07-29T06:42:13;1.50;;;1.00;;
19257;SDS011;9763;48.780;9.212;2022-07-29T06:45:36;1.40;;;0.97;;
19257;SDS011;9763;48.780;9.212;2022-07-29T06:49:02;1.57;;;1.07;;
19257;SDS011;9763;48.780;9.212;2022-07-29T06:52:26;1.40;;;1.00;;
19257;SDS011;9763;48.780;9.212;2022-07-29T06:55:50;1.57;;;1.40;;
19257;SDS011;9763;48.780;9.212;2022-07-29T06:59:15;1.50;;;1.10;;
19257;SDS011;9763;48.780;9.212;2022-07-29T07:02:39;1.50;;;1.20;;
19257;SDS011;9763;48.780;9.212;2022-07-29T07:06:03;1.50;;;1.30;;
19257;SDS011;9763;48.780;9.212;2022-07-29T07:09:26;1.80;;;1.20;;
19257;SDS011;9763;48.780;9.212;2022-07-29T07:13:00;1.80;;;1.27;;
19257;SDS011;9763;48.780;9.212;2022-07-29T07:16:26;1.80;;;1.07;;
19257;SDS011;9763;48.780;9.212;2022-07-29T07:19:49;1.40;;;1.13;;
19257;SDS011;9763;48.780;9.212;2022-07-29T07:23:13;1.70;;;1.20;;
19257;SDS011;9763;48.780;9.212;2022-07-29T07:26:36;1.90;;;1.30;;
19257;SDS011;9763;48.780;9.212;2022-07-29T07:30:01;1.53;;;1.03;;
19257;SDS011;9763;48.780;9.212;2022-07-29T07:33:28;2.17;;;1.73;;
19257;SDS011;9763;48.780;9.212;2022-07-29T07:36:52;1.60;;;1.10;;
19257;SDS011;9763;48.780;9.212;2022-07-29T07:40:15;2.37;;;1.30;;
19257;SDS011;9763;48.780;9.212;2022-07-29T07:43:39;1.70;;;1.30;;
19257;SDS011;9763;48.780;9.212;2022-07-29T07:47:03;1.63;;;1.33;;
19257;SDS011;9763;48.780;9.212;2022-07-29T07:50:34;1.50;;;1.27;;
19257;SDS011;9763;48.780;9.212;2022-07-29T07:53:58;2.07;;;1.37;;
19257;SDS011;9763;48.780;9.212;2022-07-29T07:57:23;1.50;;;1.13;;
19257;SDS011;9763;48.780;9.212;2022-07-29T08:00:47;1.80;;;1.40;;
19257;SDS011;9763;48.780;9.212;2022-07-29T08:04:11;1.70;;;1.10;;
19257;SDS011;9763;48.780;9.212;2022-07-29T08:07:36;1.63;;;1.20;;
19257;SDS011;9763;48.780;9.212;2022-07-29T08:11:00;1.50;;;1.30;;
19257;SDS011;9763;48.780;9.212;2022-07-29T08:14:30;1.53;;;1.30;;
19257;SDS011;9763;48.780;9.212;2022-07-29T08:17:55;1.60;;;1.20;;
19257;SDS011;9763;48.780;9.212;2022-07-29T08:21:19;1.50;;;1.00;;
19257;SDS011;9763;48.780;9.212;2022-07-29T08:24:44;3.30;;;1.57;;
19257;SDS011;9763;48.780;9.212;2022-07-29T08:28:15;1.70;;;1.10;;
19257;SDS011;9763;48.780;9.212;2022-07-29T08:31:39;1.60;;;1.30;;
19257;SDS011;9763;48.780;9.212;2022-07-29T08:35:03;2.03;;;1.30;;
19257;SDS011;9763;48.780;9.212;2022-07-29T08:38:28;1.47;;;1.33;;
19257;SDS011;9763;48.780;9.212;2022-07-29T08:41:53;2.17;;;1.33;;
19257;SDS011;9763;48.780;9.212;2022-07-29T08:45:18;1.67;;;1.47;;
19257;SDS011;9763;48.780;9.212;2022-07-29T08:48:46;2.17;;;1.60;;
19257;SDS011;9763;48.780;9.212;2022-07-29T08:52:11;3.07;;;1.67;;
19257;SDS011;9763;48.780;9.212;2022-07-29T08:55:36;1.50;;;1.30;;
19257;SDS011;9763;48.780;9.212;2022-07-29T08:59:04;1.83;;;1.40;;
19257;SDS011;9763;48.780;9.212;2022-07-29T09:02:35;1.93;;;1.40;;
19257;SDS011;9763;48.780;9.212;2022-07-29T09:06:07;2.13;;;1.47;;
19257;SDS011;9763;48.780;9.212;2022-07-29T09:09:31;1.70;;;1.27;;
19257;SDS011;9763;48.780;9.212;2022-07-29T09:12:56;2.00;;;1.20;;
19257;SDS011;9763;48.780;9.212;2022-07-29T09:16:22;1.67;;;1.30;;
19257;SDS011;9763;48.780;9.212;2022-07-29T09:20:08;3.60;;;1.40;;
19257;SDS011;9763;48.780;9.212;2022-07-29T09:23:33;1.60;;;1.10;;
19257;SDS011;9763;48.780;9.212;2022-07-29T09:26:57;1.70;;;1.50;;
19257;SDS011;9763;48.780;9.212;2022-07-29T09:30:21;2.53;;;1.53;;
19257;SDS011;9763;48.780;9.212;2022-07-29T09:33:54;1.80;;;1.50;;
19257;SDS011;9763;48.780;9.212;2022-07-29T09:37:27;1.50;;;1.10;;
19257;SDS011;9763;48.780;9.212;2022-07-29T09:41:02;1.80;;;1.41;;
19257;SDS011;9763;48.780;9.212;2022-07-29T09:44:40;1.80;;;1.20;;
19257;SDS011;9763;48.780;9.212;2022-07-29T09:48:12;1.70;;;1.30;;
19257;SDS011;9763;48.780;9.212;2022-07-29T09:51:40;1.77;;;1.40;;
19257;SDS011;9763;48.780;9.212;2022-07-29T09:55:04;1.70;;;1.20;;
19257;SDS011;9763;48.780;9.212;2022-07-29T09:58:29;1.97;;;1.77;;
19257;SDS011;9763;48.780;9.212;2022-07-29T10:01:55;1.70;;;1.60;;
19257;SDS011;9763;48.780;9.212;2022-07-29T10:05:20;2.63;;;1.33;;
19257;SDS011;9763;48.780;9.212;2022-07-29T10:08:47;1.73;;;1.50;;
19257;SDS011;9763;48.780;9.212;2022-07-29T10:12:12;2.70;;;1.37;;
19257;SDS011;9763;48.780;9.212;2022-07-29T10:15:36;1.70;;;1.27;;
19257;SDS011;9763;48.780;9.212;2022-07-29T10:19:05;1.60;;;1.40;;
19257;SDS011;9763;48.780;9.212;2022-07-29T10:22:28;1.73;;;1.37;;
19257;SDS011;9763;48.780;9.212;2022-07-29T10:26:13;2.43;;;1.87;;
19257;SDS011;9763;48.780;9.212;2022-07-29T10:29:40;1.90;;;1.40;;
19257;SDS011;9763;48.780;9.212;2022-07-29T10:37:06;2.03;;;1.77;;
19257;SDS011;9763;48.780;9.212;2022-07-29T10:40:42;5.70;;;2.00;;
19257;SDS011;9763;48.780;9.212;2022-07-29T10:44:42;2.00;;;1.57;;
19257;SDS011;9763;48.780;9.212;2022-07-29T10:48:07;2.43;;;1.80;;
19257;SDS011;9763;48.780;9.212;2022-07-29T10:51:51;3.10;;;1.93;;
19257;SDS011;9763;48.780;9.212;2022-07-29T10:55:30;3.13;;;2.20;;
19257;SDS011;9763;48.780;9.212;2022-07-29T11:02:54;5.93;;;2.70;;
19257;SDS011;9763;48.780;9.212;2022-07-29T11:06:20;3.20;;;2.30;;
19257;SDS011;9763;48.780;9.212;2022-07-29T11:10:19;2.80;;;2.17;;
19257;SDS011;9763;48.780;9.212;2022-07-29T11:13:51;4.10;;;2.27;;
19257;SDS011;9763;48.780;9.212;2022-07-29T11:17:17;3.00;;;2.00;;
19257;SDS011;9763;48.780;9.212;2022-07-29T11:20:43;2.33;;;1.87;;
19257;SDS011;9763;48.780;9.212;2022-07-29T11:24:13;2.50;;;2.30;;
19257;SDS011;9763;48.780;9.212;2022-07-29T11:27:49;2.27;;;1.97;;
19257;SDS011;9763;48.780;9.212;2022-07-29T11:31:19;2.10;;;1.90;;
19257;SDS011;9763;48.780;9.212;2022-07-29T11:35:12;2.70;;;2.10;;
19257;SDS011;9763;48.780;9.212;2022-07-29T11:42:58;2.10;;;1.87;;
19257;SDS011;9763;48.780;9.212;2022-07-29T11:46:43;2.10;;;1.90;;
19257;SDS011;9763;48.780;9.212;2022-07-29T11:50:11;2.23;;;2.07;;
19257;SDS011;9763;48.780;9.212;2022-07-29T11:53:38;2.67;;;2.30;;
19257;SDS011;9763;48.780;9.212;2022-07-29T11:57:04;3.47;;;3.07;;
19257;SDS011;9763;48.780;9.212;2022-07-29T12:00:31;3.40;;;2.80;;
19257;SDS011;9763;48.780;9.212;2022-07-29T12:04:02;2.57;;;2.37;;
19257;SDS011;9763;48.780;9.212;2022-07-29T12:07:28;2.80;;;2.60;;
19257;SDS011;9763;48.780;9.212;2022-07-29T12:10:56;2.70;;;2.50;;
19257;SDS011;9763;48.780;9.212;2022-07-29T12:14:27;2.60;;;2.40;;
19257;SDS011;9763;48.780;9.212;2022-07-29T12:17:52;2.80;;;2.60;;
19257;SDS011;9763;48.780;9.212;2022-07-29T12:21:16;2.90;;;2.60;;
19257;SDS011;9763;48.780;9.212;2022-07-29T12:24:46;2.53;;;2.03;;
19257;SDS011;9763;48.780;9.212;2022-07-29T12:28:10;2.10;;;1.90;;
19257;SDS011;9763;48.780;9.212;2022-07-29T12:31:53;1.83;;;1.73;;
19257;SDS011;9763;48.780;9.212;2022-07-29T12:35:18;1.60;;;1.40;;
19257;SDS011;9763;48.780;9.212;2022-07-29T12:38:43;2.10;;;1.80;;
19257;SDS011;9763;48.780;9.212;2022-07-29T12:42:11;5.90;;;1.83;;
19257;SDS011;9763;48.780;9.212;2022-07-29T12:45:40;2.03;;;1.83;;
19257;SDS011;9763;48.780;9.212;2022-07-29T12:49:08;2.20;;;1.93;;
19257;SDS011;9763;48.780;9.212;2022-07-29T12:52:33;4.27;;;2.30;;
19257;SDS011;9763;48.780;9.212;2022-07-29T12:55:59;2.23;;;2.03;;
19257;SDS011;9763;48.780;9.212;2022-07-29T12:59:32;2.10;;;1.63;;
19257;SDS011;9763;48.780;9.212;2022-07-29T13:02:59;2.63;;;2.00;;
19257;SDS011;9763;48.780;9.212;2022-07-29T13:06:28;2.40;;;2.20;;
19257;SDS011;9763;48.780;9.212;2022-07-29T13:10:09;2.13;;;1.93;;
19257;SDS011;9763;48.780;9.212;2022-07-29T13:13:42;2.33;;;1.80;;
19257;SDS011;9763;48.780;9.212;2022-07-29T13:17:27;2.37;;;2.17;;
19257;SDS011;9763;48.780;9.212;2022-07-29T13:21:12;3.00;;;2.23;;
19257;SDS011;9763;48.780;9.212;2022-07-29T13:24:50;2.10;;;1.90;;
19257;SDS011;9763;48.780;9.212;2022-07-29T13:28:17;2.03;;;1.87;;
19257;SDS011;9763;48.780;9.212;2022-07-29T13:31:43;2.30;;;2.10;;
19257;SDS011;9763;48.780;9.212;2022-07-29T13:35:07;3.70;;;2.03;;
19257;SDS011;9763;48.780;9.212;2022-07-29T13:38:32;2.37;;;2.17;;
19257;SDS011;9763;48.780;9.212;2022-07-29T13:41:57;1.80;;;1.70;;
19257;SDS011;9763;48.780;9.212;2022-07-29T13:45:22;2.20;;;2.10;;
19257;SDS011;9763;48.780;9.212;2022-07-29T13:48:49;2.37;;;2.00;;
19257;SDS011;9763;48.780;9.212;2022-07-29T13:52:13;2.37;;;2.17;;
19257;SDS011;9763;48.780;9.212;2022-07-29T13:55:38;2.50;;;2.30;;
19257;SDS011;9763;48.780;9.212;2022-07-29T13:59:03;2.83;;;2.50;;
19257;SDS011;9763;48.780;9.212;2022-07-29T14:02:27;2.73;;;2.53;;
19257;SDS011;9763;48.780;9.212;2022-07-29T14:05:50;2.93;;;2.73;;
19257;SDS011;9763;48.780;9.212;2022-07-29T14:09:14;3.37;;;2.70;;
19257;SDS011;9763;48.780;9.212;2022-07-29T14:12:38;2.70;;;2.40;;
19257;SDS011;9763;48.780;9.212;2022-07-29T14:16:04;3.40;;;3.10;;
19257;SDS011;9763;48.780;9.212;2022-07-29T14:19:28;3.30;;;3.00;;
19257;SDS011;9763;48.780;9.212;2022-07-29T14:22:53;2.97;;;2.77;;
19257;SDS011;9763;48.780;9.212;2022-07-29T14:26:17;3.40;;;3.10;;
19257;SDS011;9763;48.780;9.212;2022-07-29T14:29:45;2.90;;;2.70;;
19257;SDS011;9763;48.780;9.212;2022-07-29T14:33:09;2.90;;;2.70;;
19257;SDS011;9763;48.780;9.212;2022-07-29T14:36:33;3.00;;;2.70;;
19257;SDS011;9763;48.780;9.212;2022-07-29T14:39:56;2.90;;;2.70;;
19257;SDS011;9763;48.780;9.212;2022-07-29T14:43:23;2.70;;;2.50;;
19257;SDS011;9763;48.780;9.212;2022-07-29T14:46:47;3.00;;;2.80;;
19257;SDS011;9763;48.780;9.212;2022-07-29T14:50:12;2.83;;;2.63;;
19257;SDS011;9763;48.780;9.212;2022-07-29T14:53:36;2.80;;;2.60;;
19257;SDS011;9763;48.780;9.212;2022-07-29T14:56:59;12.50;;;2.90;;
19257;SDS011;9763;48.780;9.212;2022-07-29T15:00:23;2.83;;;2.63;;
19257;SDS011;9763;48.780;9.212;2022-07-29T15:03:47;2.77;;;2.57;;
19257;SDS011;9763;48.780;9.212;2022-07-29T15:07:13;2.73;;;2.53;;
19257;SDS011;9763;48.780;9.212;2022-07-29T15:10:37;2.30;;;2.10;;
19257;SDS011;9763;48.780;9.212;2022-07-29T15:14:00;2.83;;;2.63;;
19257;SDS011;9763;48.780;9.212;2022-07-29T15:17:24;2.57;;;2.37;;
19257;SDS011;9763;48.780;9.212;2022-07-29T15:20:48;3.00;;;2.27;;
19257;SDS011;9763;48.780;9.212;2022-07-29T15:24:13;2.37;;;2.17;;
19257;SDS011;9763;48.780;9.212;2022-07-29T15:27:38;2.73;;;2.53;;
19257;SDS011;9763;48.780;9.212;2022-07-29T15:31:09;2.70;;;2.27;;
19257;SDS011;9763;48.780;9.212;2022-07-29T15:34:32;2.67;;;2.47;;
19257;SDS011;9763;48.780;9.212;2022-07-29T15:37:56;2.63;;;2.43;;
19257;SDS011;9763;48.780;9.212;2022-07-29T15:41:21;3.00;;;2.80;;
19257;SDS011;9763;48.780;9.212;2022-07-29T15:44:45;3.87;;;2.70;;
19257;SDS011;9763;48.780;9.212;2022-07-29T15:48:08;2.77;;;2.57;;
19257;SDS011;9763;48.780;9.212;2022-07-29T15:51:38;3.00;;;2.80;;
19257;SDS011;9763;48.780;9.212;2022-07-29T15:55:02;3.00;;;2.80;;
19257;SDS011;9763;48.780;9.212;2022-07-29T15:58:28;2.83;;;2.63;;
19257;SDS011;9763;48.780;9.212;2022-07-29T16:01:52;3.07;;;2.77;;
19257;SDS011;9763;48.780;9.212;2022-07-29T16:05:15;3.00;;;2.80;;
19257;SDS011;9763;48.780;9.212;2022-07-29T16:08:39;2.47;;;2.27;;
19257;SDS011;9763;48.780;9.212;2022-07-29T16:12:05;3.37;;;3.07;;
19257;SDS011;9763;48.780;9.212;2022-07-29T16:15:37;3.20;;;2.67;;
19257;SDS011;9763;48.780;9.212;2022-07-29T16:19:00;3.13;;;2.90;;
19257;SDS011;9763;48.780;9.212;2022-07-29T16:22:25;3.00;;;2.67;;
19257;SDS011;9763;48.780;9.212;2022-07-29T16:25:49;2.70;;;2.50;;
19257;SDS011;9763;48.780;9.212;2022-07-29T16:29:21;2.87;;;2.67;;
19257;SDS011;9763;48.780;9.212;2022-07-29T16:32:46;3.00;;;2.70;;
19257;SDS011;9763;48.780;9.212;2022-07-29T16:36:10;3.17;;;2.87;;
19257;SDS011;9763;48.780;9.212;2022-07-29T16:39:39;2.63;;;2.43;;
19257;SDS011;9763;48.780;9.212;2022-07-29T16:43:02;3.43;;;2.93;;
19257;SDS011;9763;48.780;9.212;2022-07-29T16:46:27;3.20;;;2.90;;
19257;SDS011;9763;48.780;9.212;2022-07-29T16:49:52;3.10;;;2.90;;
19257;SDS011;9763;48.780;9.212;2022-07-29T16:53:15;4.13;;;2.50;;
19257;SDS011;9763;48.780;9.212;2022-07-29T16:56:39;2.77;;;2.57;;
19257;SDS011;9763;48.780;9.212;2022-07-29T17:00:03;2.53;;;2.03;;
19257;SDS011;9763;48.780;9.212;2022-07-29T17:03:29;3.33;;;2.57;;
19257;SDS011;9763;48.780;9.212;2022-07-29T17:06:53;2.60;;;2.40;;
19257;SDS011;9763;48.780;9.212;2022-07-29T17:10:18;2.63;;;2.43;;
19257;SDS011;9763;48.780;9.212;2022-07-29T17:13:48;2.70;;;2.50;;
19257;SDS011;9763;48.780;9.212;2022-07-29T17:17:12;2.50;;;2.30;;
19257;SDS011;9763;48.780;9.212;2022-07-29T17:20:37;2.70;;;2.50;;
19257;SDS011;9763;48.780;9.212;2022-07-29T17:24:02;3.10;;;2.57;;
19257;SDS011;9763;48.780;9.212;2022-07-29T17:27:26;2.43;;;2.23;;
19257;SDS011;9763;48.780;9.212;2022-07-29T17:30:50;2.50;;;2.30;;
19257;SDS011;9763;48.780;9.212;2022-07-29T17:34:13;3.53;;;2.50;;
19257;SDS011;9763;48.780;9.212;2022-07-29T17:37:37;2.63;;;2.43;;
19257;SDS011;9763;48.780;9.212;2022-07-29T17:41:02;2.40;;;2.20;;
19257;SDS011;9763;48.780;9.212;2022-07-29T17:44:30;2.83;;;2.60;;
19257;SDS011;9763;48.780;9.212;2022-07-29T17:47:57;3.40;;;2.57;;
19257;SDS011;9763;48.780;9.212;2022-07-29T17:51:21;2.60;;;2.40;;
19257;SDS011;9763;48.780;9.212;2022-07-29T17:54:45;3.17;;;2.40;;
19257;SDS011;9763;48.780;9.212;2022-07-29T17:58:11;3.53;;;2.60;;
19257;SDS011;9763;48.780;9.212;2022-07-29T18:01:34;2.83;;;2.63;;
19257;SDS011;9763;48.780;9.212;2022-07-29T18:04:58;2.60;;;2.40;;
19257;SDS011;9763;48.780;9.212;2022-07-29T18:08:22;2.57;;;2.37;;
19257;SDS011;9763;48.780;9.212;2022-07-29T18:11:46;2.60;;;2.40;;
19257;SDS011;9763;48.780;9.212;2022-07-29T18:15:11;2.43;;;2.23;;
19257;SDS011;9763;48.780;9.212;2022-07-29T18:18:35;2.30;;;2.10;;
19257;SDS011;9763;48.780;9.212;2022-07-29T18:21:59;3.50;;;2.40;;
19257;SDS011;9763;48.780;9.212;2022-07-29T18:25:26;2.40;;;2.20;;
19257;SDS011;9763;48.780;9.212;2022-07-29T18:28:50;2.60;;;2.40;;
19257;SDS011;9763;48.780;9.212;2022-07-29T18:32:15;3.60;;;2.47;;
19257;SDS011;9763;48.780;9.212;2022-07-29T18:35:50;2.67;;;2.47;;
19257;SDS011;9763;48.780;9.212;2022-07-29T18:39:31;2.40;;;2.20;;
19257;SDS011;9763;48.780;9.212;2022-07-29T18:42:55;2.70;;;2.50;;
19257;SDS011;9763;48.780;9.212;2022-07-29T18:46:19;2.87;;;2.57;;
19257;SDS011;9763;48.780;9.212;2022-07-29T18:49:44;2.40;;;2.20;;
19257;SDS011;9763;48.780;9.212;2022-07-29T18:53:08;2.20;;;2.00;;
19257;SDS011;9763;48.780;9.212;2022-07-29T18:56:32;3.20;;;1.80;;
19257;SDS011;9763;48.780;9.212;2022-07-29T18:59:56;3.60;;;1.80;;
19257;SDS011;9763;48.780;9.212;2022-07-29T19:03:19;2.30;;;2.10;;
19257;SDS011;9763;48.780;9.212;2022-07-29T19:06:45;3.00;;;2.00;;
19257;SDS011;9763;48.780;9.212;2022-07-29T19:10:08;2.43;;;2.23;;
19257;SDS011;9763;48.780;9.212;2022-07-29T19:13:32;2.33;;;2.13;;
19257;SDS011;9763;48.780;9.212;2022-07-29T19:16:57;4.07;;;2.53;;
19257;SDS011;9763;48.780;9.212;2022-07-29T19:20:21;2.30;;;2.10;;
19257;SDS011;9763;48.780;9.212;2022-07-29T19:23:47;3.70;;;2.53;;
19257;SDS011;9763;48.780;9.212;2022-07-29T19:27:28;2.30;;;2.10;;
19257;SDS011;9763;48.780;9.212;2022-07-29T19:30:52;2.23;;;2.03;;
19257;SDS011;9763;48.780;9.212;2022-07-29T19:34:16;2.10;;;1.90;;
19257;SDS011;9763;48.780;9.212;2022-07-29T19:37:40;2.40;;;1.97;;
19257;SDS011;9763;48.780;9.212;2022-07-29T19:41:05;2.63;;;2.03;;
19257;SDS011;9763;48.780;9.212;2022-07-29T19:44:29;2.63;;;2.20;;
19257;SDS011;9763;48.780;9.212;2022-07-29T19:47:53;1.90;;;1.80;;
19257;SDS011;9763;48.780;9.212;2022-07-29T19:51:22;1.77;;;1.57;;
19257;SDS011;9763;48.780;9.212;2022-07-29T19:54:46;2.10;;;1.90;;
19257;SDS011;9763;48.780;9.212;2022-07-29T19:58:11;2.37;;;2.17;;
19257;SDS011;9763;48.780;9.212;2022-07-29T20:01:36;1.80;;;1.70;;
19257;SDS011;9763;48.780;9.212;2022-07-29T20:04:59;2.10;;;1.90;;
19257;SDS011;9763;48.780;9.212;2022-07-29T20:08:23;1.90;;;1.70;;
19257;SDS011;9763;48.780;9.212;2022-07-29T20:11:48;1.83;;;1.73;;
19257;SDS011;9763;48.780;9.212;2022-07-29T20:15:13;2.27;;;1.97;;
19257;SDS011;9763;48.780;9.212;2022-07-29T20:18:37;2.37;;;2.17;;
19257;SDS011;9763;48.780;9.212;2022-07-29T20:22:01;4.00;;;1.90;;
19257;SDS011;9763;48.780;9.212;2022-07-29T20:25:25;2.43;;;2.20;;
19257;SDS011;9763;48.780;9.212;2022-07-29T20:28:49;2.53;;;2.33;;
19257;SDS011;9763;48.780;9.212;2022-07-29T20:32:15;3.97;;;2.70;;
19257;SDS011;9763;48.780;9.212;2022-07-29T20:35:39;3.07;;;2.77;;
19257;SDS011;9763;48.780;9.212;2022-07-29T20:39:04;2.50;;;2.30;;
19257;SDS011;9763;48.780;9.212;2022-07-29T20:42:28;2.43;;;2.10;;
19257;SDS011;9763;48.780;9.212;2022-07-29T20:45:52;3.57;;;2.10;;
19257;SDS011;9763;48.780;9.212;2022-07-29T20:49:17;3.07;;;2.10;;
19257;SDS011;9763;48.780;9.212;2022-07-29T20:52:41;2.40;;;2.20;;
19257;SDS011;9763;48.780;9.212;2022-07-29T20:56:05;2.83;;;2.03;;
19257;SDS011;9763;48.780;9.212;2022-07-29T20:59:29;3.27;;;2.63;;
19257;SDS011;9763;48.780;9.212;2022-07-29T21:02:54;2.90;;;2.33;;
19257;SDS011;9763;48.780;9.212;2022-07-29T21:06:19;2.80;;;2.60;;
19257;SDS011;9763;48.780;9.212;2022-07-29T21:09:42;2.40;;;2.20;;
19257;SDS011;9763;48.780;9.212;2022-07-29T21:13:06;3.77;;;2.23;;
19257;SDS011;9763;48.780;9.212;2022-07-29T21:16:30;2.60;;;2.27;;